createdAt,value
2019-01-09T00:01:25.495Z,10.20
2019-01-09T00:03:55.561Z,8.60
2019-01-09T00:06:25.527Z,6.93
2019-01-09T00:09:00.819Z,4.07
2019-01-09T00:11:32.078Z,4.50
2019-01-09T00:14:01.938Z,2.30
2019-01-09T00:16:32.058Z,3.37
2019-01-09T00:19:02.213Z,7.47
2019-01-09T00:21:32.734Z,3.00
2019-01-09T00:24:19.027Z,2.20
2019-01-09T00:26:49.026Z,1.17
2019-01-09T00:29:19.151Z,1.63
2019-01-09T00:31:49.349Z,2.30
2019-01-09T00:34:21.986Z,1.60
2019-01-09T00:36:56.783Z,1.33
2019-01-09T00:39:30.410Z,1.83
2019-01-09T00:42:00.985Z,3.63
2019-01-09T00:44:32.392Z,1.67
2019-01-09T00:47:05.552Z,4.87
2019-01-09T00:49:36.340Z,7.77
2019-01-09T00:52:06.520Z,2.87
2019-01-09T00:54:38.474Z,2.30
2019-01-09T00:57:10.118Z,3.63
2019-01-09T00:59:40.897Z,2.13
2019-01-09T01:02:30.484Z,2.37
2019-01-09T01:05:31.409Z,1.50
2019-01-09T01:08:44.346Z,4.17
2019-01-09T01:11:42.393Z,3.13
2019-01-09T01:14:51.759Z,1.50
2019-01-09T01:18:05.421Z,2.07
2019-01-09T01:20:47.063Z,2.30
2019-01-09T01:23:52.843Z,2.63
2019-01-09T01:26:47.471Z,2.13
2019-01-09T01:29:49.420Z,1.50
2019-01-09T01:32:38.193Z,2.60
2019-01-09T01:35:44.800Z,1.33
2019-01-09T01:38:41.074Z,1.53
2019-01-09T01:41:48.606Z,1.60
2019-01-09T01:45:13.648Z,0.60
2019-01-09T01:48:19.703Z,1.07
2019-01-09T01:51:36.551Z,0.67
2019-01-09T01:54:39.189Z,0.50
2019-01-09T01:57:39.982Z,0.70
2019-01-09T02:00:38.927Z,0.30
2019-01-09T02:03:31.251Z,0.50
2019-01-09T02:06:18.349Z,0.97
2019-01-09T02:09:37.198Z,0.67
2019-01-09T02:12:38.148Z,0.70
2019-01-09T02:15:48.453Z,1.13
2019-01-09T02:18:34.133Z,0.90
2019-01-09T02:21:37.749Z,1.27
2019-01-09T02:25:02.622Z,1.37
2019-01-09T02:27:56.094Z,1.03
2019-01-09T02:31:03.883Z,1.30
2019-01-09T02:33:33.750Z,1.60
2019-01-09T02:36:12.956Z,2.40
2019-01-09T02:38:35.255Z,2.03
2019-01-09T02:41:05.066Z,2.03
2019-01-09T02:43:34.846Z,2.30
2019-01-09T02:46:04.590Z,1.93
2019-01-09T02:48:37.574Z,1.67
2019-01-09T02:51:07.390Z,1.77
2019-01-09T02:53:37.379Z,1.50
2019-01-09T02:56:07.178Z,1.43
2019-01-09T02:58:37.010Z,2.07
2019-01-09T03:01:06.785Z,2.33
2019-01-09T03:03:37.464Z,1.50
2019-01-09T03:06:07.306Z,1.23
2019-01-09T03:08:37.104Z,1.43
2019-01-09T03:11:07.184Z,1.90
2019-01-09T03:13:36.881Z,1.63
2019-01-09T03:16:06.845Z,2.00
2019-01-09T03:18:36.559Z,2.20
2019-01-09T03:21:06.364Z,1.23
2019-01-09T03:23:36.124Z,2.33
2019-01-09T03:26:05.943Z,1.67
2019-01-09T03:28:35.714Z,1.60
2019-01-09T03:31:05.482Z,1.73
2019-01-09T03:33:36.773Z,2.47
2019-01-09T03:36:10.962Z,1.77
2019-01-09T03:39:01.096Z,1.20
2019-01-09T03:41:32.538Z,1.40
2019-01-09T03:44:02.414Z,1.60
2019-01-09T03:46:32.179Z,2.10
2019-01-09T03:49:02.039Z,1.57
2019-01-09T03:51:32.796Z,1.37
2019-01-09T03:54:04.441Z,1.10
2019-01-09T03:56:34.178Z,1.30
2019-01-09T03:59:55.775Z,1.40
2019-01-09T04:02:25.530Z,1.37
2019-01-09T04:05:03.565Z,1.23
2019-01-09T04:07:33.569Z,1.47
2019-01-09T04:10:04.140Z,1.33
2019-01-09T04:12:35.918Z,1.57
2019-01-09T04:15:06.827Z,1.30
2019-01-09T04:17:37.913Z,1.63
2019-01-09T04:20:08.220Z,1.60
2019-01-09T04:22:37.992Z,0.93
2019-01-09T04:25:07.823Z,1.10
2019-01-09T04:27:37.657Z,1.00
2019-01-09T04:30:08.168Z,1.00
2019-01-09T04:32:50.528Z,1.43
2019-01-09T04:35:20.335Z,1.00
2019-01-09T04:37:50.181Z,1.07
2019-01-09T04:40:26.117Z,0.93
2019-01-09T04:42:56.011Z,0.87
2019-01-09T04:45:28.254Z,1.50
2019-01-09T04:47:58.025Z,1.13
2019-01-09T04:50:27.798Z,3.37
2019-01-09T04:52:57.564Z,6.07
2019-01-09T04:55:31.915Z,6.77
2019-01-09T04:58:01.698Z,6.10
2019-01-09T05:00:34.692Z,2.20
2019-01-09T05:03:04.583Z,1.40
2019-01-09T05:05:34.295Z,1.27
2019-01-09T05:08:04.053Z,1.10
2019-01-09T05:10:33.789Z,1.50
2019-01-09T05:13:03.558Z,1.40
2019-01-09T05:15:33.297Z,1.70
2019-01-09T05:18:03.068Z,2.10
2019-01-09T05:20:32.846Z,1.87
2019-01-09T05:23:02.938Z,1.60
2019-01-09T05:25:32.844Z,2.30
2019-01-09T05:28:02.625Z,2.27
2019-01-09T05:30:32.522Z,1.43
2019-01-09T05:33:02.590Z,1.17
2019-01-09T05:35:32.313Z,1.70
2019-01-09T05:38:02.090Z,1.27
2019-01-09T05:40:31.924Z,2.23
2019-01-09T05:43:01.599Z,2.03
2019-01-09T05:45:31.428Z,1.60
2019-01-09T05:48:01.135Z,1.90
2019-01-09T05:50:30.973Z,1.93
2019-01-09T05:53:00.779Z,2.13
2019-01-09T05:55:30.888Z,2.17
2019-01-09T05:58:00.745Z,2.43
2019-01-09T06:00:32.840Z,2.13
2019-01-09T06:03:02.608Z,2.20
2019-01-09T06:05:32.456Z,1.70
2019-01-09T06:08:02.286Z,1.83
2019-01-09T06:10:31.996Z,1.47
2019-01-09T06:13:01.805Z,0.97
2019-01-09T06:15:31.592Z,2.00
2019-01-09T06:18:01.388Z,1.67
2019-01-09T06:20:31.190Z,2.10
2019-01-09T06:23:02.154Z,2.73
2019-01-09T06:25:31.938Z,2.37
2019-01-09T06:28:06.289Z,4.03
2019-01-09T06:30:36.029Z,6.23
2019-01-09T06:33:11.241Z,5.33
2019-01-09T06:35:41.084Z,6.70
2019-01-09T06:38:10.906Z,6.80
2019-01-09T06:40:43.442Z,5.80
2019-01-09T06:43:13.447Z,6.57
2019-01-09T06:45:43.257Z,6.40
2019-01-09T06:48:12.932Z,7.03
2019-01-09T06:50:45.257Z,6.17
2019-01-09T06:53:15.741Z,5.87
2019-01-09T06:55:45.497Z,4.93
2019-01-09T06:58:15.366Z,3.67
2019-01-09T07:00:45.073Z,3.33
2019-01-09T07:03:14.812Z,4.50
2019-01-09T07:05:44.713Z,2.57
2019-01-09T07:08:14.442Z,3.03
2019-01-09T07:10:44.136Z,2.93
2019-01-09T07:13:13.898Z,2.50
2019-01-09T07:15:43.657Z,2.67
2019-01-09T07:18:13.411Z,2.27
2019-01-09T07:20:43.452Z,2.17
2019-01-09T07:23:21.944Z,3.83
2019-01-09T07:25:52.232Z,3.23
2019-01-09T07:28:22.008Z,3.30
2019-01-09T07:30:51.829Z,1.90
2019-01-09T07:33:21.657Z,1.50
2019-01-09T07:35:53.748Z,4.27
2019-01-09T07:38:23.548Z,2.93
2019-01-09T07:40:53.608Z,2.10
2019-01-09T07:43:23.405Z,2.13
2019-01-09T07:45:53.094Z,2.13
2019-01-09T07:48:22.832Z,1.80
2019-01-09T07:50:52.617Z,1.00
2019-01-09T07:53:22.367Z,1.20
2019-01-09T07:55:52.128Z,1.77
2019-01-09T07:58:22.822Z,3.03
2019-01-09T08:00:52.553Z,2.13
2019-01-09T08:03:24.664Z,2.20
2019-01-09T08:05:54.400Z,2.43
2019-01-09T08:08:24.327Z,1.70
2019-01-09T08:10:54.130Z,1.60
2019-01-09T08:13:23.827Z,1.27
2019-01-09T08:15:53.613Z,1.73
2019-01-09T08:18:23.484Z,2.07
2019-01-09T08:20:53.227Z,1.40
2019-01-09T08:23:22.972Z,1.70
2019-01-09T08:25:53.054Z,1.33
2019-01-09T08:28:24.279Z,1.43
2019-01-09T08:30:53.966Z,1.97
2019-01-09T08:33:23.721Z,1.60
2019-01-09T08:35:53.454Z,1.57
2019-01-09T08:38:23.211Z,2.23
2019-01-09T08:41:00.069Z,1.53
2019-01-09T08:43:27.423Z,5.03
2019-01-09T08:45:57.238Z,2.30
2019-01-09T08:48:27.016Z,2.27
2019-01-09T08:50:56.757Z,1.47
2019-01-09T08:53:28.964Z,1.67
2019-01-09T08:55:59.062Z,2.27
2019-01-09T08:58:28.859Z,1.60
2019-01-09T09:00:58.567Z,1.33
2019-01-09T09:03:28.367Z,2.67
2019-01-09T09:05:59.387Z,1.70
2019-01-09T09:08:30.448Z,2.03
2019-01-09T09:11:00.534Z,1.73
2019-01-09T09:13:40.436Z,1.57
2019-01-09T09:16:11.396Z,1.90
2019-01-09T09:18:41.293Z,2.70
2019-01-09T09:21:11.016Z,1.83
2019-01-09T09:23:51.492Z,2.20
2019-01-09T09:26:21.267Z,2.43
2019-01-09T09:28:54.255Z,1.23
2019-01-09T09:31:30.891Z,2.40
2019-01-09T09:34:00.641Z,2.53
2019-01-09T09:36:30.952Z,1.90
2019-01-09T09:39:00.747Z,1.80
2019-01-09T09:41:31.966Z,1.17
2019-01-09T09:44:01.691Z,1.80
2019-01-09T09:46:31.393Z,2.00
2019-01-09T09:49:04.837Z,1.93
2019-01-09T09:51:37.149Z,1.83
2019-01-09T09:54:06.902Z,2.90
2019-01-09T09:56:36.658Z,1.40
2019-01-09T09:59:07.505Z,1.83
2019-01-09T10:01:37.298Z,2.20
2019-01-09T10:04:07.262Z,1.20
2019-01-09T10:06:37.087Z,1.40
2019-01-09T10:09:10.643Z,2.37
2019-01-09T10:11:40.347Z,1.53
2019-01-09T10:14:10.115Z,2.30
2019-01-09T10:16:43.263Z,2.63
2019-01-09T10:19:13.090Z,2.30
2019-01-09T10:21:42.851Z,1.57
2019-01-09T10:24:14.298Z,1.40
2019-01-09T10:26:44.050Z,1.77
2019-01-09T10:29:13.823Z,1.47
2019-01-09T10:31:52.317Z,1.47
2019-01-09T10:34:23.006Z,1.67
2019-01-09T10:36:52.766Z,1.13
2019-01-09T10:39:22.747Z,1.40
2019-01-09T10:41:52.552Z,1.30
2019-01-09T10:44:22.248Z,1.43
2019-01-09T10:46:52.120Z,1.50
2019-01-09T10:49:23.106Z,1.60
2019-01-09T10:51:52.885Z,1.80
2019-01-09T10:54:22.690Z,1.10
2019-01-09T10:56:52.426Z,1.50
2019-01-09T10:59:22.191Z,1.17
2019-01-09T11:01:52.116Z,1.33
2019-01-09T11:04:21.921Z,1.53
2019-01-09T11:06:54.467Z,1.17
2019-01-09T11:09:25.876Z,1.07
2019-01-09T11:11:55.690Z,1.00
2019-01-09T11:14:26.293Z,1.40
2019-01-09T11:16:58.382Z,1.47
2019-01-09T11:19:28.190Z,1.47
2019-01-09T11:22:16.191Z,1.53
2019-01-09T11:24:45.971Z,0.90
2019-01-09T11:27:16.223Z,1.00
2019-01-09T11:29:45.993Z,1.07
2019-01-09T11:32:16.756Z,1.37
2019-01-09T11:34:48.652Z,1.20
2019-01-09T11:37:44.900Z,1.20
2019-01-09T11:40:26.710Z,1.53
2019-01-09T11:42:58.628Z,1.33
2019-01-09T11:45:34.687Z,1.20
2019-01-09T11:48:10.068Z,0.70
2019-01-09T11:50:52.128Z,1.10
2019-01-09T11:53:25.730Z,0.77
2019-01-09T11:56:04.201Z,1.00
2019-01-09T11:58:37.907Z,0.80
2019-01-09T12:01:17.241Z,0.63
2019-01-09T12:03:49.712Z,1.07
2019-01-09T12:06:44.871Z,0.80
2019-01-09T12:09:23.881Z,1.07
2019-01-09T12:12:00.237Z,0.90
2019-01-09T12:14:34.546Z,1.03
2019-01-09T12:17:07.587Z,0.83
2019-01-09T12:20:01.144Z,0.70
2019-01-09T12:22:59.225Z,0.97
2019-01-09T12:25:40.996Z,1.00
2019-01-09T12:28:53.583Z,0.87
2019-01-09T12:31:30.980Z,1.20
2019-01-09T12:34:05.901Z,0.93
2019-01-09T12:36:59.184Z,1.17
2019-01-09T12:39:38.816Z,0.63
2019-01-09T12:42:19.772Z,1.20
2019-01-09T12:44:54.272Z,0.67
2019-01-09T12:47:34.065Z,1.10
2019-01-09T12:50:06.128Z,1.00
2019-01-09T12:52:36.250Z,0.83
2019-01-09T12:55:15.193Z,1.10
2019-01-09T12:57:45.906Z,0.50
2019-01-09T13:00:37.995Z,0.60
2019-01-09T13:03:12.154Z,0.63
2019-01-09T13:05:43.308Z,0.80
2019-01-09T13:08:13.327Z,1.00
2019-01-09T13:10:45.203Z,0.63
2019-01-09T13:13:18.666Z,0.60
2019-01-09T13:15:49.690Z,0.90
2019-01-09T13:18:21.280Z,0.60
2019-01-09T13:20:52.676Z,0.73
2019-01-09T13:23:29.017Z,1.23
2019-01-09T13:25:59.712Z,0.73
2019-01-09T13:28:34.220Z,0.70
2019-01-09T13:31:05.191Z,0.67
2019-01-09T13:41:26.992Z,0.60
2019-01-09T13:47:38.531Z,0.80
2019-01-09T13:50:12.356Z,0.50
2019-01-09T13:52:44.982Z,0.57
2019-01-09T13:55:32.829Z,1.20
2019-01-09T13:58:04.138Z,0.93
2019-01-09T14:00:33.987Z,0.67
2019-01-09T14:03:07.505Z,0.80
2019-01-09T14:05:37.461Z,0.47
2019-01-09T14:08:07.877Z,0.90
2019-01-09T14:10:37.836Z,1.00
2019-01-09T14:13:09.124Z,1.40
2019-01-09T14:18:22.851Z,0.23
2019-01-09T14:20:57.061Z,1.10
2019-01-09T14:23:36.530Z,0.97
2019-01-09T14:26:11.136Z,0.63
2019-01-09T14:28:41.129Z,0.60
2019-01-09T14:31:11.041Z,1.10
2019-01-09T14:33:40.979Z,0.60
2019-01-09T14:36:11.121Z,0.57
2019-01-09T14:38:42.489Z,0.80
2019-01-09T14:41:12.451Z,1.33
2019-01-09T14:43:45.590Z,0.80
2019-01-09T14:46:23.414Z,0.73
2019-01-09T14:48:53.917Z,1.00
2019-01-09T14:51:23.657Z,0.80
2019-01-09T14:53:58.737Z,0.70
2019-01-09T14:56:28.202Z,1.10
2019-01-09T14:59:01.783Z,1.00
2019-01-09T15:01:55.105Z,0.57
2019-01-09T15:04:25.438Z,1.27
2019-01-09T15:07:00.217Z,0.67
2019-01-09T15:09:30.419Z,1.03
2019-01-09T15:12:01.217Z,0.97
2019-01-09T15:14:34.399Z,0.80
2019-01-09T15:17:04.449Z,1.77
2019-01-09T15:19:34.739Z,0.63
2019-01-09T15:22:09.235Z,0.90
2019-01-09T15:25:16.263Z,1.03
2019-01-09T15:27:47.313Z,1.00
2019-01-09T15:30:33.224Z,1.27
2019-01-09T15:33:04.995Z,0.60
2019-01-09T15:35:35.331Z,0.63
2019-01-09T15:38:10.774Z,1.83
2019-01-09T15:40:40.845Z,1.10
2019-01-09T15:43:11.646Z,0.50
2019-01-09T15:45:41.951Z,0.83
2019-01-09T15:48:12.703Z,1.10
2019-01-09T15:50:45.320Z,0.80
2019-01-09T15:53:15.490Z,1.13
2019-01-09T15:55:47.120Z,0.93
2019-01-09T15:58:17.065Z,0.87
2019-01-09T16:00:52.669Z,0.73
2019-01-09T16:03:23.141Z,1.33
2019-01-09T16:05:56.694Z,1.00
2019-01-09T16:08:27.371Z,0.90
2019-01-09T16:10:59.929Z,0.87
2019-01-09T16:13:33.142Z,1.10
2019-01-09T16:16:03.301Z,0.90
2019-01-09T16:18:40.838Z,0.90
2019-01-09T16:21:15.571Z,0.87
2019-01-09T16:23:48.058Z,0.63
2019-01-09T16:26:25.860Z,0.83
2019-01-09T16:28:57.886Z,1.17
2019-01-09T16:31:38.764Z,1.07
2019-01-09T16:34:09.641Z,0.70
2019-01-09T16:36:44.483Z,1.00
2019-01-09T16:39:31.119Z,0.90
2019-01-09T16:41:59.188Z,1.30
2019-01-09T16:44:30.061Z,0.63
2019-01-09T16:47:00.809Z,1.53
2019-01-09T16:49:30.755Z,1.20
2019-01-09T16:52:03.604Z,1.83
2019-01-09T16:54:33.640Z,1.30
2019-01-09T16:57:07.373Z,1.30
2019-01-09T16:59:37.855Z,0.80
2019-01-09T17:02:08.024Z,1.13
2019-01-09T17:04:40.749Z,0.90
2019-01-09T17:07:17.272Z,0.60
2019-01-09T17:09:47.575Z,0.97
2019-01-09T17:12:25.487Z,1.00
2019-01-09T17:14:57.001Z,0.83
2019-01-09T17:17:28.729Z,1.17
2019-01-09T17:20:00.494Z,1.10
2019-01-09T17:22:32.129Z,1.03
2019-01-09T17:25:03.001Z,1.63
2019-01-09T17:27:41.923Z,1.03
2019-01-09T17:30:19.504Z,1.73
2019-01-09T17:32:50.740Z,1.03
2019-01-09T17:35:23.218Z,0.83
2019-01-09T17:38:05.611Z,0.90
2019-01-09T17:40:41.340Z,1.13
2019-01-09T17:43:12.229Z,1.10
2019-01-09T17:45:45.263Z,1.00
2019-01-09T17:48:15.093Z,0.80
2019-01-09T17:50:45.345Z,1.30
2019-01-09T17:53:19.191Z,1.17
2019-01-09T17:55:50.104Z,1.13
2019-01-09T17:58:20.523Z,0.97
2019-01-09T18:00:54.378Z,1.60
2019-01-09T18:03:25.889Z,1.17
2019-01-09T18:06:46.746Z,1.37
2019-01-09T18:08:34.344Z,1.00
2019-01-09T18:11:04.539Z,1.00
2019-01-09T18:13:34.698Z,1.30
2019-01-09T18:16:07.479Z,0.93
2019-01-09T18:18:38.080Z,0.90
2019-01-09T18:21:09.865Z,0.87
2019-01-09T18:23:42.421Z,1.00
2019-01-09T18:26:16.464Z,1.00
2019-01-09T18:28:51.284Z,0.93
2019-01-09T18:31:58.516Z,1.50
2019-01-09T18:34:38.828Z,1.53
2019-01-09T18:37:37.353Z,1.33
2019-01-09T18:41:08.788Z,1.20
2019-01-09T18:44:10.919Z,1.00
2019-01-09T18:47:04.652Z,1.03
2019-01-09T18:49:48.100Z,0.87
2019-01-09T18:52:52.109Z,1.30
2019-01-09T18:55:27.285Z,1.20
2019-01-09T18:57:57.854Z,1.13
2019-01-09T19:00:27.783Z,1.07
2019-01-09T19:02:58.603Z,1.17
2019-01-09T19:05:29.732Z,0.90
2019-01-09T19:08:02.054Z,1.03
2019-01-09T19:10:32.336Z,1.13
2019-01-09T19:13:09.018Z,1.47
2019-01-09T19:15:39.474Z,1.10
2019-01-09T19:18:09.917Z,1.13
2019-01-09T19:20:40.052Z,1.60
2019-01-09T19:23:10.920Z,1.07
2019-01-09T19:25:41.745Z,1.30
2019-01-09T19:28:12.928Z,1.47
2019-01-09T19:30:42.749Z,1.13
2019-01-09T19:33:16.341Z,1.57
2019-01-09T19:35:52.550Z,0.90
2019-01-09T19:38:24.334Z,1.60
2019-01-09T19:40:59.986Z,1.40
2019-01-09T19:43:29.922Z,1.27
2019-01-09T19:46:06.615Z,1.57
2019-01-09T19:48:41.154Z,1.00
2019-01-09T19:51:17.893Z,0.90
2019-01-09T19:53:47.745Z,0.83
2019-01-09T19:56:17.406Z,1.13
2019-01-09T19:58:48.293Z,0.80
2019-01-09T20:01:20.905Z,0.93
2019-01-09T20:03:51.118Z,1.37
2019-01-09T20:06:38.812Z,1.57
2019-01-09T20:09:10.342Z,1.03
2019-01-09T20:11:41.099Z,1.17
2019-01-09T20:14:11.378Z,1.07
2019-01-09T20:16:41.251Z,1.10
2019-01-09T20:19:13.846Z,1.50
2019-01-09T20:21:44.648Z,1.33
2019-01-09T20:24:15.147Z,1.83
2019-01-09T20:26:48.634Z,1.53
2019-01-09T20:29:19.983Z,0.90
2019-01-09T20:31:52.539Z,1.40
2019-01-09T20:34:34.525Z,1.20
2019-01-09T20:37:04.608Z,0.90
2019-01-09T20:39:37.094Z,1.63
2019-01-09T20:42:14.802Z,1.03
2019-01-09T20:44:47.988Z,1.10
2019-01-09T20:47:19.873Z,1.30
2019-01-09T20:49:52.500Z,1.20
2019-01-09T20:52:32.414Z,1.30
2019-01-09T20:55:02.243Z,1.10
2019-01-09T20:57:41.506Z,1.07
2019-01-09T21:00:18.236Z,1.93
2019-01-09T21:02:48.403Z,1.43
2019-01-09T21:05:37.751Z,1.60
2019-01-09T21:08:08.606Z,1.53
2019-01-09T21:10:38.543Z,1.70
2019-01-09T21:13:09.934Z,1.80
2019-01-09T21:15:41.298Z,1.17
2019-01-09T21:18:12.130Z,1.57
2019-01-09T21:20:42.670Z,1.17
2019-01-09T21:23:12.771Z,1.20
2019-01-09T21:25:42.987Z,1.10
2019-01-09T21:28:17.536Z,2.27
2019-01-09T21:30:47.531Z,1.43
2019-01-09T21:33:19.225Z,1.40
2019-01-09T21:35:53.441Z,1.57
2019-01-09T21:38:23.543Z,1.10
2019-01-09T21:40:55.029Z,1.40
2019-01-09T21:43:28.779Z,1.13
2019-01-09T21:45:59.823Z,1.10
2019-01-09T21:48:29.579Z,1.90
2019-01-09T21:51:01.068Z,1.43
2019-01-09T21:53:31.174Z,1.20
2019-01-09T21:56:01.305Z,2.10
2019-01-09T21:58:37.596Z,1.33
2019-01-09T22:01:08.599Z,1.10
2019-01-09T22:03:38.270Z,1.63
2019-01-09T22:06:13.945Z,2.00
2019-01-09T22:08:45.037Z,1.20
2019-01-09T22:11:15.494Z,1.40
2019-01-09T22:13:48.678Z,1.87
2019-01-09T22:16:19.205Z,1.30
2019-01-09T22:18:49.193Z,1.03
2019-01-09T22:21:20.305Z,1.30
2019-01-09T22:23:50.482Z,1.40
2019-01-09T22:26:20.736Z,1.13
2019-01-09T22:28:54.352Z,1.30
2019-01-09T22:31:27.687Z,1.60
2019-01-09T22:34:00.976Z,1.57
2019-01-09T22:36:31.603Z,1.80
2019-01-09T22:39:07.588Z,1.50
2019-01-09T22:41:39.944Z,1.50
2019-01-09T22:44:13.240Z,1.10
2019-01-09T22:46:47.272Z,1.40
2019-01-09T22:49:17.548Z,1.57
2019-01-09T22:51:50.952Z,1.97
2019-01-09T22:54:21.278Z,0.93
2019-01-09T22:56:53.178Z,1.73
2019-01-09T22:59:23.087Z,1.43
2019-01-09T23:01:55.679Z,1.40
2019-01-09T23:04:25.291Z,0.97
2019-01-09T23:06:55.272Z,1.33
2019-01-09T23:09:27.772Z,1.20
2019-01-09T23:11:57.816Z,1.40
2019-01-09T23:14:28.967Z,1.50
2019-01-09T23:16:59.439Z,1.40
2019-01-09T23:19:29.328Z,1.50
2019-01-09T23:21:59.284Z,1.23
2019-01-09T23:24:29.457Z,0.97
2019-01-09T23:26:59.388Z,1.47
2019-01-09T23:29:30.414Z,1.13
2019-01-09T23:32:01.701Z,1.70
2019-01-09T23:34:35.266Z,1.27
2019-01-09T23:37:05.321Z,1.90
2019-01-09T23:39:35.072Z,1.60
2019-01-09T23:42:05.358Z,1.53
2019-01-09T23:44:36.062Z,2.90
2019-01-09T23:47:09.290Z,1.73
2019-01-09T23:49:38.880Z,2.10
2019-01-09T23:52:12.256Z,1.63
2019-01-09T23:54:42.163Z,1.63
2019-01-09T23:57:12.081Z,1.83
2019-01-09T23:59:45.647Z,2.37
